Time;durP1;ratioP1;P1;durP2;ratioP2;P2;SDS_P1;SDS_P2;PMS_P1;PMS_P2;Temp;Humidity;BMP_temperature;BMP_pressure;BME280_temperature;BME280_humidity;BME280_pressure;Samples;Min_cycle;Max_cycle;Signal;HPM_P1;HPM_P2
2024/02/14 00:00:13;;;;;;;;;;;;;;;11.58;76.39;99609.55;108224;1252;70431;-67
2024/02/14 00:02:43;;;;;;;40.70;20.30;;;;;;;11.70;76.04;99607.73;108140;1256;72952;-70
2024/02/14 00:05:10;;;;;;;47.50;21.20;;;;;;;11.63;76.31;99611.44;108207;1253;61268;-66
2024/02/14 00:07:38;;;;;;;64.20;24.00;;;;;;;11.58;76.45;99610.45;108148;1253;60146;-67
2024/02/14 00:10:05;;;;;;;76.00;27.70;;;;;;;11.46;76.94;99616.64;108157;1253;73694;-68
2024/02/14 00:12:33;;;;;;;60.20;22.50;;;;;;;11.45;77.11;99617.59;108168;1255;70659;-67
2024/02/14 00:15:00;;;;;;;68.00;22.50;;;;;;;11.52;76.88;99617.38;108130;1252;72470;-67
2024/02/14 00:17:26;;;;;;;48.60;19.30;;;;;;;11.61;76.67;99620.33;108122;1253;59605;-68
2024/02/14 00:19:53;;;;;;;35.90;17.70;;;;;;;11.63;76.51;99620.20;108210;1253;60207;-67
2024/02/14 00:22:20;;;;;;;28.70;15.10;;;;;;;11.69;76.39;99624.66;108170;1253;73566;-67
2024/02/14 00:24:46;;;;;;;23.00;13.70;;;;;;;12.05;74.99;99629.94;108165;1252;71026;-68
2024/02/14 00:27:14;;;;;;;23.40;14.40;;;;;;;12.02;75.00;99629.73;108151;1253;71407;-67
2024/02/14 00:29:43;;;;;;;21.80;14.40;;;;;;;11.94;75.32;99630.28;108174;1253;60955;-67
2024/02/14 00:32:13;;;;;;;27.30;15.50;;;;;;;12.00;75.14;99628.27;108176;1253;60958;-66
2024/02/14 00:34:40;;;;;;;24.00;15.50;;;;;;;12.12;74.74;99629.02;108156;1253;72874;-67
2024/02/14 00:37:06;;;;;;;23.80;15.00;;;;;;;11.95;75.35;99626.56;108196;1252;68937;-63
2024/02/14 00:39:33;;;;;;;26.40;15.80;;;;;;;12.03;75.05;99625.09;108179;1253;72522;-67
2024/02/14 00:42:00;;;;;;;23.90;15.00;;;;;;;12.09;74.82;99626.20;108187;1253;60925;-68
2024/02/14 00:44:26;;;;;;;27.60;15.70;;;;;;;12.16;74.59;99630.07;108243;1253;59541;-67
2024/02/14 00:46:59;;;;;;;31.10;16.40;;;;;;;12.20;74.35;99631.43;108217;1252;73043;-67
2024/02/14 00:49:26;;;;;;;25.40;15.00;;;;;;;12.09;74.78;99629.35;108176;1253;70300;-67
2024/02/14 00:51:53;;;;;;;28.60;16.40;;;;;;;11.83;75.55;99631.15;108177;1253;72708;-65
2024/02/14 00:54:20;;;;;;;28.00;16.70;;;;;;;11.71;76.26;99631.78;108193;1253;60880;-67
2024/02/14 00:56:46;;;;;;;31.40;16.70;;;;;;;11.84;75.87;99629.54;108240;1252;59805;-68
2024/02/14 00:59:13;;;;;;;32.20;18.20;;;;;;;11.86;75.77;99626.30;108141;1253;73432;-67
2024/02/14 01:01:41;;;;;;;28.60;16.20;;;;;;;11.82;75.83;99630.86;108241;1253;70796;-64
2024/02/14 01:04:07;;;;;;;32.70;18.70;;;;;;;11.80;75.79;99627.64;108228;1253;71687;-64
2024/02/14 01:06:34;;;;;;;37.50;18.90;;;;;;;11.81;75.81;99630.06;108163;1257;61008;-65
2024/02/14 01:09:01;;;;;;;30.00;17.80;;;;;;;11.89;75.44;99620.49;108186;1252;60364;-67
2024/02/14 01:11:28;;;;;;;40.90;20.50;;;;;;;11.90;75.23;99623.43;108233;1252;72846;-67
2024/02/14 01:13:55;;;;;;;33.20;19.20;;;;;;;11.86;75.41;99619.44;108225;1253;59603;-67
2024/02/14 01:16:21;;;;;;;43.30;21.90;;;;;;;11.69;75.84;99620.77;108167;1253;72458;-68
2024/02/14 01:18:48;;;;;;;35.00;19.20;;;;;;;11.69;75.98;99624.14;108196;1253;61116;-67
2024/02/14 01:21:14;;;;;;;29.80;17.90;;;;;;;11.76;75.75;99624.67;108221;1253;60403;-67
2024/02/14 01:23:41;;;;;;;27.60;16.60;;;;;;;11.80;75.49;99616.55;108149;1253;73066;-67
2024/02/14 01:26:09;;;;;;;26.70;16.50;;;;;;;11.79;75.53;99612.90;108144;1252;70184;-67
2024/02/14 01:28:35;;;;;;;25.50;15.20;;;;;;;11.74;75.65;99614.89;108089;1253;72409;-67
2024/02/14 01:31:02;;;;;;;38.80;18.40;;;;;;;11.79;75.54;99613.95;108156;1253;61217;-68
2024/02/14 01:33:30;;;;;;;32.60;17.60;;;;;;;11.80;75.41;99620.05;108153;1253;59112;-67
2024/02/14 01:35:57;;;;;;;39.30;18.60;;;;;;;11.75;75.60;99622.41;108195;1253;72401;-68
2024/02/14 01:38:24;;;;;;;38.90;18.90;;;;;;;11.57;76.38;99621.36;108163;1253;68972;-68
2024/02/14 01:40:50;;;;;;;25.40;14.60;;;;;;;11.60;76.41;99611.04;108124;1253;73195;-67
2024/02/14 01:43:17;;;;;;;38.40;18.60;;;;;;;11.71;75.91;99612.63;108143;1253;60952;-66
2024/02/14 01:45:43;;;;;;;35.40;18.70;;;;;;;11.71;75.83;99616.44;108157;1253;60328;-66
2024/02/14 01:48:10;;;;;;;40.00;20.00;;;;;;;11.77;75.69;99615.12;108150;1253;73959;-68
2024/02/14 01:50:38;;;;;;;44.50;21.30;;;;;;;11.78;75.66;99611.56;108207;1253;70351;-67
2024/02/14 01:53:05;;;;;;;37.50;18.70;;;;;;;11.73;75.76;99609.14;108157;1253;71291;-67
2024/02/14 01:55:33;;;;;;;49.20;21.80;;;;;;;11.65;76.18;99611.50;108161;1253;61202;-67
2024/02/14 01:57:59;;;;;;;42.00;19.20;;;;;;;11.62;76.42;99611.84;108212;1253;60392;-67
2024/02/14 02:00:27;;;;;;;31.80;17.40;;;;;;;11.52;76.90;99615.98;108160;1253;72668;-67
2024/02/14 02:02:55;;;;;;;40.50;19.10;;;;;;;11.56;76.64;99612.64;108265;1253;70197;-67
2024/02/14 02:05:22;;;;;;;40.70;19.20;;;;;;;11.55;76.73;99615.67;108227;1252;72433;-67
2024/02/14 02:07:49;;;;;;;51.90;21.50;;;;;;;11.47;77.02;99620.06;108168;1252;60871;-66
2024/02/14 02:10:16;;;;;;;44.20;21.20;;;;;;;11.49;77.22;99624.07;108103;1253;60332;-68
2024/02/14 02:12:43;;;;;;;52.30;22.70;;;;;;;11.53;77.05;99623.67;108164;1253;73743;-67
2024/02/14 02:15:12;;;;;;;45.30;22.10;;;;;;;11.50;77.10;99623.45;108128;1253;70674;-68
2024/02/14 02:17:39;;;;;;;47.70;22.30;;;;;;;11.56;77.04;99624.96;108181;1253;71893;-68
2024/02/14 02:20:08;;;;;;;49.00;21.90;;;;;;;11.64;76.69;99624.89;108137;1253;61216;-67
2024/02/14 02:22:35;;;;;;;48.40;22.40;;;;;;;11.69;76.62;99630.48;108141;1253;60394;-67
2024/02/14 02:25:06;;;;;;;49.70;23.30;;;;;;;11.81;75.94;99633.73;108179;1253;73662;-68
2024/02/14 02:27:37;;;;;;;;;;;;;;;11.92;75.69;99631.10;108177;1253;70875;-66
2024/02/14 02:30:08;;;;;;;48.30;21.60;;;;;;;11.65;76.68;99637.01;108098;1252;73302;-67
2024/02/14 02:32:34;;;;;;;48.10;22.70;;;;;;;11.74;76.61;99640.06;108099;1253;60443;-67
2024/02/14 02:35:01;;;;;;;56.50;24.60;;;;;;;11.79;76.39;99641.56;108097;1253;60362;-67
2024/02/14 02:37:29;;;;;;;44.30;20.60;;;;;;;11.96;75.67;99637.59;108107;1253;74408;-66
2024/02/14 02:39:56;;;;;;;52.30;22.70;;;;;;;11.77;76.27;99639.20;108166;1253;71055;-67
2024/02/14 02:42:23;;;;;;;54.00;23.20;;;;;;;11.75;76.53;99639.32;108118;1257;71385;-66
2024/02/14 02:44:53;;;;;;;45.80;20.50;;;;;;;11.69;76.79;99642.77;108129;1253;60915;-67
2024/02/14 02:47:19;;;;;;;52.30;24.10;;;;;;;11.65;76.88;99642.98;108075;1253;60319;-65
2024/02/14 02:49:46;;;;;;;41.90;19.60;;;;;;;11.66;76.94;99644.34;108144;1253;73513;-67
2024/02/14 02:52:13;;;;;;;68.10;24.10;;;;;;;11.72;76.67;99650.02;108165;1253;70519;-68
2024/02/14 02:54:40;;;;;;;68.50;26.00;;;;;;;11.72;76.66;99651.77;108147;1254;72338;-68
2024/02/14 02:57:08;;;;;;;60.40;25.30;;;;;;;11.77;76.52;99649.75;108124;1253;60991;-66
2024/02/14 02:59:35;;;;;;;60.40;24.50;;;;;;;11.73;76.77;99652.41;108106;1253;60470;-68
2024/02/14 03:02:02;;;;;;;57.20;22.70;;;;;;;11.76;76.73;99649.84;108146;1253;74147;-67
2024/02/14 03:04:31;;;;;;;51.40;21.20;;;;;;;11.80;76.49;99646.80;108142;1253;69941;-66
2024/02/14 03:07:15;;;;;;;55.30;24.20;;;;;;;11.76;76.59;99649.11;108120;1253;72870;-67
2024/02/14 03:09:41;;;;;;;46.80;21.70;;;;;;;11.76;76.62;99651.41;108104;1253;60274;-65
2024/02/14 03:12:09;;;;;;;39.10;18.30;;;;;;;11.70;76.89;99651.88;108087;1253;60212;-67
2024/02/14 03:14:37;;;;;;;53.90;22.70;;;;;;;11.75;76.84;99651.61;108161;1253;73530;-67
2024/02/14 03:17:04;;;;;;;50.30;21.20;;;;;;;11.78;76.64;99654.63;108144;1256;70307;-67
2024/02/14 03:19:31;;;;;;;56.00;22.40;;;;;;;11.75;76.77;99656.89;108104;1253;73173;-64
2024/02/14 03:21:58;;;;;;;57.20;22.00;;;;;;;11.76;76.76;99657.20;108114;1253;61176;-67
2024/02/14 03:24:25;;;;;;;46.30;20.20;;;;;;;11.76;76.70;99659.14;108156;1257;60558;-67
2024/02/14 03:26:53;;;;;;;49.80;22.60;;;;;;;11.84;76.44;99659.98;108094;1253;73464;-67
2024/02/14 03:29:21;;;;;;;53.00;23.30;;;;;;;11.86;76.23;99656.70;108061;1253;70901;-65
2024/02/14 03:31:47;;;;;;;57.60;23.40;;;;;;;11.85;76.25;99658.16;108179;1254;72410;-66
2024/02/14 03:34:14;;;;;;;60.30;22.70;;;;;;;11.79;76.46;99660.40;108221;1251;61151;-67
2024/02/14 03:36:42;;;;;;;57.70;24.20;;;;;;;11.83;76.35;99663.02;108250;1251;60125;-66
2024/02/14 03:39:09;;;;;;;60.90;23.80;;;;;;;11.82;76.34;99663.96;108378;1251;73665;-66
2024/02/14 03:41:37;;;;;;;47.90;20.30;;;;;;;11.88;76.05;99664.89;108373;1251;68538;-63
2024/02/14 03:44:03;;;;;;;48.40;20.90;;;;;;;11.82;76.23;99666.95;108393;1255;72350;-65
2024/02/14 03:50:02;;;;;;;54.20;21.90;;;;;;;11.99;75.82;99680.20;108308;1251;60662;-68
2024/02/14 03:52:29;;;;;;;59.60;24.90;;;;;;;11.96;75.60;99686.69;108358;1251;73250;-67
2024/02/14 03:54:57;;;;;;;73.00;27.10;;;;;;;11.86;76.15;99685.92;108401;1251;68622;-65
2024/02/14 03:57:25;;;;;;;50.20;21.00;;;;;;;12.00;75.66;99686.70;108346;1252;73248;-69
2024/02/14 03:59:52;;;;;;;58.30;24.90;;;;;;;11.90;75.88;99689.76;108327;1252;59732;-68
2024/02/14 04:02:19;;;;;;;69.80;25.80;;;;;;;11.91;75.94;99687.09;108288;1253;60404;-67
2024/02/14 04:04:46;;;;;;;58.40;22.90;;;;;;;11.99;75.47;99685.64;108273;1251;73593;-67
2024/02/14 04:07:13;;;;;;;63.20;25.30;;;;;;;11.93;75.62;99687.88;108292;1255;70379;-67
2024/02/14 04:09:40;;;;;;;63.30;24.70;;;;;;;12.00;75.45;99692.12;108307;1251;72070;-67
2024/02/14 04:12:08;;;;;;;60.50;25.30;;;;;;;11.97;75.58;99694.02;108313;1251;60355;-67
2024/02/14 04:14:35;;;;;;;74.40;27.60;;;;;;;11.89;75.92;99702.30;108358;1251;60131;-67
2024/02/14 04:17:02;;;;;;;60.90;23.90;;;;;;;11.94;75.74;99704.54;108358;1251;73618;-67
2024/02/14 04:19:29;;;;;;;67.40;26.90;;;;;;;12.05;75.33;99708.23;108280;1251;70557;-67
2024/02/14 04:21:56;;;;;;;58.50;24.80;;;;;;;12.14;75.06;99703.90;108335;1251;72687;-66
2024/02/14 04:24:23;;;;;;;43.00;19.20;;;;;;;12.25;74.60;99703.84;108325;1251;60608;-69
2024/02/14 04:26:49;;;;;;;53.60;23.50;;;;;;;12.32;74.11;99710.54;108349;1255;60434;-67
2024/02/14 04:29:16;;;;;;;43.90;17.00;;;;;;;12.33;73.86;99717.73;108291;1251;74461;-67
2024/02/14 04:31:43;;;;;;;35.50;17.30;;;;;;;12.25;73.85;99720.39;108311;1251;70538;-66
2024/02/14 04:34:11;;;;;;;27.60;15.60;;;;;;;12.18;73.81;99720.75;108315;1251;72337;-66
2024/02/14 04:36:37;;;;;;;31.60;14.20;;;;;;;12.06;73.95;99716.98;108296;1251;61007;-67
2024/02/14 04:39:04;;;;;;;30.60;13.60;;;;;;;11.96;74.04;99715.69;108284;1253;60105;-67
2024/02/14 04:41:32;;;;;;;24.40;11.90;;;;;;;11.80;74.30;99721.53;108223;1252;73876;-68
2024/02/14 04:44:00;;;;;;;23.60;12.30;;;;;;;11.74;74.17;99725.69;108285;1255;70149;-68
2024/02/14 04:46:26;;;;;;;18.50;10.70;;;;;;;11.70;74.10;99731.88;108131;1257;73875;-68
2024/02/14 04:48:53;;;;;;;18.50;10.70;;;;;;;11.64;74.22;99732.02;108230;1253;61326;-68
2024/02/14 04:51:20;;;;;;;14.80;9.40;;;;;;;11.70;73.62;99733.11;108251;1252;60451;-66
2024/02/14 04:53:47;;;;;;;17.50;10.20;;;;;;;11.63;73.77;99737.84;108245;1254;73193;-68
2024/02/14 04:56:14;;;;;;;20.80;10.40;;;;;;;11.65;73.49;99735.48;108253;1254;70156;-67
2024/02/14 04:58:40;;;;;;;18.90;10.20;;;;;;;11.68;73.09;99743.23;108199;1254;72519;-68
2024/02/14 05:01:07;;;;;;;14.50;9.30;;;;;;;11.56;73.30;99746.96;108256;1251;60339;-67
2024/02/14 05:03:34;;;;;;;14.60;9.10;;;;;;;11.44;73.49;99747.18;108247;1254;60363;-68
2024/02/14 05:06:02;;;;;;;14.80;9.60;;;;;;;11.49;73.02;99751.15;108230;1251;73807;-68
2024/02/14 05:08:29;;;;;;;18.80;8.80;;;;;;;11.45;72.80;99756.09;108270;1251;70022;-68
2024/02/14 05:10:56;;;;;;;13.40;8.30;;;;;;;11.30;73.05;99753.81;108172;1252;74282;-68
2024/02/14 05:13:23;;;;;;;14.90;8.80;;;;;;;11.22;73.03;99761.36;108301;1251;60902;-67
2024/02/14 05:15:51;;;;;;;15.80;8.90;;;;;;;11.14;73.13;99765.59;108350;1255;60326;-67
2024/02/14 05:18:17;;;;;;;10.20;7.20;;;;;;;11.10;73.14;99778.07;108343;1251;72420;-66
2024/02/14 05:20:44;;;;;;;12.20;8.50;;;;;;;10.95;73.44;99783.65;108290;1251;70195;-68
2024/02/14 05:23:11;;;;;;;14.10;8.60;;;;;;;11.01;73.06;99783.38;108260;1252;73554;-67
2024/02/14 05:25:39;;;;;;;15.10;8.00;;;;;;;10.97;72.93;99788.64;108293;1252;60915;-67
2024/02/14 05:28:06;;;;;;;11.90;7.80;;;;;;;10.87;73.10;99790.32;108293;1252;60481;-67
2024/02/14 05:30:33;;;;;;;12.30;7.50;;;;;;;10.89;72.79;99792.70;108215;1253;74137;-68
2024/02/14 05:33:00;;;;;;;13.90;8.10;;;;;;;10.80;72.74;99798.20;108218;1256;70283;-68
2024/02/14 05:35:27;;;;;;;13.00;8.20;;;;;;;10.78;72.72;99795.61;108206;1253;72559;-67
2024/02/14 05:37:55;;;;;;;11.70;8.30;;;;;;;10.75;72.73;99799.80;108196;1253;60948;-67
2024/02/14 05:40:22;;;;;;;11.40;8.20;;;;;;;10.59;73.10;99796.59;108201;1253;60306;-67
2024/02/14 05:42:48;;;;;;;10.10;6.80;;;;;;;10.56;73.21;99800.77;108260;1252;73692;-67
2024/02/14 05:45:15;;;;;;;12.90;8.00;;;;;;;10.65;72.71;99799.87;108276;1252;70287;-67
2024/02/14 05:47:43;;;;;;;13.20;7.80;;;;;;;10.68;72.54;99795.34;108275;1256;72317;-67
2024/02/14 05:50:11;;;;;;;10.30;7.10;;;;;;;10.59;72.67;99795.02;108301;1256;61109;-67
2024/02/14 05:52:38;;;;;;;11.30;7.60;;;;;;;10.57;72.65;99797.56;108258;1251;60444;-68
2024/02/14 05:55:05;;;;;;;12.70;7.20;;;;;;;10.60;72.52;99802.20;108266;1251;72365;-67
2024/02/14 05:57:32;;;;;;;11.50;7.10;;;;;;;10.59;72.32;99808.70;108295;1251;70251;-65
2024/02/14 05:59:58;;;;;;;12.90;8.00;;;;;;;10.51;72.43;99812.04;108298;1256;60411;-67
2024/02/14 06:02:25;;;;;;;12.00;7.40;;;;;;;10.43;72.51;99815.00;108252;1252;61217;-70
2024/02/14 06:04:51;;;;;;;10.60;7.10;;;;;;;10.33;72.60;99817.52;108261;1252;60326;-67
2024/02/14 06:07:18;;;;;;;12.40;6.70;;;;;;;10.27;72.67;99819.67;108225;1251;60448;-67
2024/02/14 06:09:45;;;;;;;10.10;6.70;;;;;;;10.22;72.77;99822.65;108206;1255;70604;-68
2024/02/14 06:12:12;;;;;;;11.90;7.80;;;;;;;10.23;72.77;99825.44;108268;1256;72687;-67
2024/02/14 06:14:39;;;;;;;10.80;6.80;;;;;;;10.22;72.77;99824.77;108280;1256;60897;-66
2024/02/14 06:17:05;;;;;;;10.10;6.80;;;;;;;10.14;72.90;99824.58;108132;1251;60313;-67
2024/02/14 06:19:34;;;;;;;10.30;7.10;;;;;;;10.03;73.12;99824.86;108268;1251;72593;-68
2024/02/14 06:22:05;;;;;;;8.70;6.30;;;;;;;10.02;73.10;99821.36;108233;1256;68794;-67
2024/02/14 06:24:31;;;;;;;9.40;6.60;;;;;;;9.97;73.11;99826.30;108243;1253;72697;-66
2024/02/14 06:26:58;;;;;;;12.10;6.60;;;;;;;9.92;73.20;99829.65;108242;1251;61048;-67
2024/02/14 06:29:25;;;;;;;8.70;5.80;;;;;;;9.90;73.06;99830.45;108280;1251;60311;-67
2024/02/14 06:31:51;;;;;;;11.70;5.90;;;;;;;9.83;73.20;99834.20;108310;1255;73966;-66
2024/02/14 06:34:19;;;;;;;10.80;6.60;;;;;;;9.84;73.05;99837.48;108160;1254;69615;-68
2024/02/14 06:36:47;;;;;;;10.30;6.70;;;;;;;9.84;72.98;99842.91;108144;1253;73352;-67
2024/02/14 06:39:13;;;;;;;10.50;6.50;;;;;;;9.89;72.77;99846.97;108225;1254;61095;-68
2024/02/14 06:41:40;;;;;;;8.10;6.00;;;;;;;9.90;72.67;99847.44;108197;1253;60325;-67
2024/02/14 06:44:07;;;;;;;9.80;6.50;;;;;;;9.84;72.66;99842.03;108190;1254;74371;-66
2024/02/14 06:46:35;;;;;;;9.10;5.90;;;;;;;9.78;72.79;99845.98;108299;1257;70454;-68
2024/02/14 06:49:02;;;;;;;12.10;6.50;;;;;;;9.73;72.87;99846.85;108116;1257;73025;-68
2024/02/14 06:51:30;;;;;;;12.00;5.90;;;;;;;9.69;72.67;99848.07;108223;1254;61083;-68
2024/02/14 06:53:56;;;;;;;10.70;6.60;;;;;;;9.74;72.44;99850.71;108178;1256;60342;-68
2024/02/14 06:56:23;;;;;;;9.30;6.40;;;;;;;9.73;72.28;99850.05;108253;1253;74078;-69
2024/02/14 06:58:53;;;;;;;8.60;6.10;;;;;;;9.76;72.06;99852.70;108223;1256;60478;-68
2024/02/14 07:01:22;;;;;;;12.20;6.40;;;;;;;9.74;72.05;99857.86;108189;1253;71187;-67
2024/02/14 07:03:49;;;;;;;11.80;6.70;;;;;;;9.70;72.20;99865.23;108160;1253;60301;-68
2024/02/14 07:06:17;;;;;;;8.90;6.10;;;;;;;9.63;72.41;99869.35;108198;1253;60859;-68
2024/02/14 07:08:44;;;;;;;10.60;5.90;;;;;;;9.68;72.16;99870.19;108249;1256;73866;-68
2024/02/14 07:11:11;;;;;;;12.00;6.80;;;;;;;9.51;72.54;99870.48;108195;1253;60249;-66
2024/02/14 07:13:37;;;;;;;8.60;5.50;;;;;;;9.44;72.77;99872.64;108147;1256;72440;-67
2024/02/14 07:16:04;;;;;;;11.00;6.10;;;;;;;9.45;72.84;99877.00;108133;1256;60994;-67
2024/02/14 07:18:34;;;;;;;9.00;5.60;;;;;;;9.48;72.83;99880.92;108111;1256;59559;-68
2024/02/14 07:21:05;;;;;;;9.50;6.70;;;;;;;9.47;72.77;99885.69;108157;1257;74178;-66
2024/02/14 07:23:33;;;;;;;12.20;6.70;;;;;;;9.44;72.82;99885.98;108132;1254;70079;-68
2024/02/14 07:26:03;;;;;;;11.80;6.20;;;;;;;9.41;72.96;99887.98;108183;1257;73406;-67
2024/02/14 07:28:29;;;;;;;10.70;6.90;;;;;;;9.35;73.18;99892.95;108182;1253;61080;-66
2024/02/14 07:30:56;;;;;;;12.70;7.10;;;;;;;9.38;73.02;99894.44;108195;1253;60381;-69
2024/02/14 07:33:23;;;;;;;9.90;5.50;;;;;;;9.34;73.23;99895.80;108222;1251;74245;-68
2024/02/14 07:35:50;;;;;;;17.30;5.70;;;;;;;9.32;73.02;99899.02;108338;1251;70220;-69
2024/02/14 07:38:17;;;;;;;11.10;6.60;;;;;;;9.26;72.84;99899.77;108103;1254;72548;-67
2024/02/14 07:40:45;;;;;;;12.30;6.30;;;;;;;9.21;72.88;99898.38;108196;1251;60526;-67
2024/02/14 07:43:11;;;;;;;10.90;6.50;;;;;;;9.14;72.85;99902.27;108242;1251;60295;-66
2024/02/14 07:45:38;;;;;;;10.70;6.70;;;;;;;9.09;72.95;99901.42;108304;1251;72972;-67
2024/02/14 07:48:05;;;;;;;10.50;7.00;;;;;;;9.11;72.99;99901.68;108220;1256;68345;-66
2024/02/14 07:50:32;;;;;;;9.60;5.80;;;;;;;9.13;72.91;99906.36;108216;1251;71701;-67
2024/02/14 07:52:59;;;;;;;10.70;6.20;;;;;;;9.05;73.31;99907.86;108099;1251;61359;-68
2024/02/14 07:55:26;;;;;;;10.00;6.40;;;;;;;9.03;73.40;99913.33;108265;1251;60412;-68
2024/02/14 07:57:52;;;;;;;12.50;6.60;;;;;;;9.08;73.29;99910.58;108293;1251;72398;-66
2024/02/14 08:00:22;;;;;;;9.00;6.10;;;;;;;9.00;73.62;99907.81;108242;1251;70487;-68
2024/02/14 08:02:49;;;;;;;10.30;6.00;;;;;;;9.04;73.73;99911.58;108263;1255;73019;-67
2024/02/14 08:05:16;;;;;;;10.40;6.30;;;;;;;9.02;73.74;99914.59;108247;1256;60309;-68
2024/02/14 08:07:46;;;;;;;9.10;5.90;;;;;;;9.09;73.59;99920.30;108258;1251;61631;-67
2024/02/14 08:10:13;;;;;;;11.40;6.60;;;;;;;8.96;73.93;99922.67;108250;1251;73857;-67
2024/02/14 08:12:40;;;;;;;10.20;6.80;;;;;;;8.96;73.97;99930.57;108231;1251;70559;-67
2024/02/14 08:15:07;;;;;;;8.40;5.60;;;;;;;8.98;74.18;99938.35;108199;1255;72769;-67
2024/02/14 08:17:35;;;;;;;9.30;5.70;;;;;;;8.98;74.15;99937.48;108210;1251;61182;-67
2024/02/14 08:20:03;;;;;;;8.20;5.30;;;;;;;9.15;73.64;99940.10;108294;1251;60223;-67
2024/02/14 08:22:31;;;;;;;11.70;6.20;;;;;;;9.23;73.24;99939.28;108254;1251;73991;-67
2024/02/14 08:24:58;;;;;;;9.40;6.30;;;;;;;9.31;73.17;99941.29;108351;1251;70118;-68
2024/02/14 08:27:26;;;;;;;10.50;5.90;;;;;;;9.32;73.06;99945.26;108277;1251;72537;-67
2024/02/14 08:29:53;;;;;;;8.20;5.40;;;;;;;9.30;73.35;99945.02;108198;1251;61303;-67
2024/02/14 08:32:21;;;;;;;8.00;5.30;;;;;;;9.38;73.15;99946.45;108255;1251;60970;-67
2024/02/14 08:34:50;;;;;;;10.10;6.00;;;;;;;9.45;72.90;99944.30;108303;1251;73521;-67
2024/02/14 08:37:17;;;;;;;8.30;5.10;;;;;;;9.42;73.18;99948.78;108329;1251;70352;-67
2024/02/14 08:39:43;;;;;;;6.40;4.70;;;;;;;9.58;72.50;99951.38;108222;1256;71266;-68
2024/02/14 08:42:10;;;;;;;7.00;4.70;;;;;;;9.68;72.15;99955.91;108243;1251;61136;-66
2024/02/14 08:44:37;;;;;;;9.10;5.20;;;;;;;9.70;71.84;99960.58;108301;1251;60382;-67
2024/02/14 08:47:04;;;;;;;7.90;4.40;;;;;;;9.72;71.76;99965.60;108301;1256;72724;-68
2024/02/14 08:49:31;;;;;;;11.50;5.40;;;;;;;9.80;71.54;99964.08;108252;1251;70568;-68
2024/02/14 08:51:58;;;;;;;7.30;4.80;;;;;;;9.85;71.44;99966.53;108327;1251;72467;-66
2024/02/14 08:54:24;;;;;;;8.30;4.90;;;;;;;9.74;71.70;99969.90;108317;1251;60428;-68
2024/02/14 08:56:55;;;;;;;8.00;4.70;;;;;;;9.75;71.85;99966.89;108282;1251;60424;-68
2024/02/14 08:59:22;;;;;;;7.50;4.70;;;;;;;9.63;72.26;99970.45;108239;1251;74127;-67
2024/02/14 09:01:49;;;;;;;7.10;4.40;;;;;;;9.65;72.41;99971.63;108174;1251;69364;-67
2024/02/14 09:04:15;;;;;;;8.10;4.50;;;;;;;9.89;71.61;99968.85;108241;1251;72127;-69
2024/02/14 09:06:42;;;;;;;10.60;5.00;;;;;;;9.83;71.54;99973.44;108237;1256;60319;-67
2024/02/14 09:09:10;;;;;;;6.70;4.40;;;;;;;9.83;71.46;99973.06;108255;1251;60404;-67
2024/02/14 09:11:37;;;;;;;8.80;4.50;;;;;;;9.85;71.38;99977.71;108285;1251;75103;-67
2024/02/14 09:14:06;;;;;;;7.00;4.30;;;;;;;9.86;71.29;99976.29;108244;1251;70265;-67
2024/02/14 09:16:33;;;;;;;6.70;4.00;;;;;;;9.82;71.21;99976.09;108175;1251;74252;-67
2024/02/14 09:19:01;;;;;;;9.00;4.20;;;;;;;9.87;70.85;99975.20;108279;1251;60355;-67
2024/02/14 09:21:28;;;;;;;8.10;4.40;;;;;;;9.84;70.71;99979.16;108274;1251;60322;-68
2024/02/14 09:23:55;;;;;;;8.90;4.20;;;;;;;9.81;70.89;99985.79;108251;1255;73796;-67
2024/02/14 09:26:22;;;;;;;6.40;4.30;;;;;;;9.90;70.89;99987.05;108224;1251;70044;-67
2024/02/14 09:28:48;;;;;;;7.50;4.30;;;;;;;9.97;70.84;99986.08;108183;1256;72704;-66
2024/02/14 09:31:22;;;;;;;9.40;4.90;;;;;;;10.02;70.84;99985.52;108206;1251;60999;-67
2024/02/14 09:33:52;;;;;;;8.80;5.20;;;;;;;10.08;70.70;99981.46;108235;1251;60641;-67
2024/02/14 09:39:24;;;;;;;8.70;5.10;;;;;;;8.93;77.68;99991.42;105061;1292;600938;-66
2024/02/14 09:41:55;;;;;;;6.60;4.40;;;;;;;9.86;72.70;99989.98;107413;1264;63047;-66
2024/02/14 09:44:23;;;;;;;8.10;4.60;;;;;;;9.80;72.40;99992.48;107457;1263;61026;-67
2024/02/14 09:46:51;;;;;;;8.50;4.60;;;;;;;9.55;72.91;99997.94;107294;1264;72314;-67
2024/02/14 09:49:18;;;;;;;7.90;4.10;;;;;;;9.45;73.28;99997.92;107328;1269;69213;-67
2024/02/14 09:51:46;;;;;;;10.10;5.00;;;;;;;9.36;73.23;100001.91;107492;1261;71383;-68
2024/02/14 09:54:14;;;;;;;7.50;4.50;;;;;;;9.30;73.37;100004.20;108079;1251;140356;-67
2024/02/14 09:56:45;;;;;;;6.60;4.00;;;;;;;9.31;73.25;100010.47;108079;1251;62426;-67
2024/02/14 09:59:12;;;;;;;7.90;4.60;;;;;;;9.26;73.48;100013.13;108084;1251;70788;-66
2024/02/14 10:01:41;;;;;;;8.10;4.70;;;;;;;9.16;73.38;100011.33;108097;1251;68732;-65
2024/02/14 10:04:09;;;;;;;7.90;4.70;;;;;;;9.21;73.22;100014.67;108170;1251;70351;-67
2024/02/14 10:06:37;;;;;;;7.60;4.70;;;;;;;9.39;72.33;100015.30;108146;1254;62334;-66
2024/02/14 10:09:05;;;;;;;9.10;4.80;;;;;;;9.23;72.34;100011.09;108179;1251;59407;-66
2024/02/14 10:11:33;;;;;;;8.60;4.00;;;;;;;8.95;73.20;100013.40;108213;1251;71851;-67
2024/02/14 10:14:03;;;;;;;6.80;4.10;;;;;;;8.90;73.60;100013.23;108198;1251;70266;-67
2024/02/14 10:16:32;;;;;;;8.50;3.70;;;;;;;8.84;73.84;100015.55;108223;1254;74774;-68
2024/02/14 10:19:00;;;;;;;7.50;4.10;;;;;;;8.83;73.87;100012.73;108293;1254;59518;-67
2024/02/14 10:21:28;;;;;;;7.40;4.00;;;;;;;8.80;73.71;100013.73;108250;1251;62319;-65
2024/02/14 10:23:59;;;;;;;6.60;3.80;;;;;;;8.68;74.27;100013.92;108178;1251;71857;-67
2024/02/14 10:26:30;;;;;;;6.90;3.50;;;;;;;8.69;74.47;100016.88;108178;1252;69925;-67
2024/02/14 10:28:58;;;;;;;7.40;3.60;;;;;;;8.72;74.29;100020.09;108179;1251;71774;-66
2024/02/14 10:31:26;;;;;;;6.40;3.50;;;;;;;8.81;73.98;100024.55;108261;1252;60291;-68
2024/02/14 10:33:55;;;;;;;6.80;3.30;;;;;;;8.91;73.75;100025.30;108158;1256;61024;-67
2024/02/14 10:36:23;;;;;;;6.80;3.20;;;;;;;8.90;73.62;100023.90;108259;1251;73322;-68
2024/02/14 10:38:50;;;;;;;5.90;3.80;;;;;;;8.94;73.26;100023.06;108155;1252;70642;-67
2024/02/14 10:41:18;;;;;;;6.30;3.60;;;;;;;8.80;73.75;100023.52;108106;1251;71853;-67
2024/02/14 10:43:46;;;;;;;5.80;3.40;;;;;;;8.81;73.82;100026.45;108254;1251;60941;-67
2024/02/14 10:46:25;;;;;;;8.40;3.50;;;;;;;8.92;73.67;100021.76;108182;1252;60468;-67
2024/02/14 10:48:54;;;;;;;8.40;4.00;;;;;;;8.92;73.78;100021.58;108044;1252;73458;-68
2024/02/14 10:51:22;;;;;;;5.90;3.50;;;;;;;8.75;74.31;100022.45;108154;1254;69187;-67
2024/02/14 10:53:49;;;;;;;7.50;3.40;;;;;;;8.63;74.99;100022.30;108075;1254;71692;-67
2024/02/14 10:56:19;;;;;;;9.30;3.80;;;;;;;8.62;75.01;100024.61;108135;1254;60853;-67
2024/02/14 10:58:47;;;;;;;10.20;4.60;;;;;;;8.60;74.76;100024.98;108150;1253;60070;-69
2024/02/14 11:01:16;;;;;;;6.40;3.60;;;;;;;8.70;74.57;100028.92;108130;1254;73364;-67
2024/02/14 11:03:44;;;;;;;6.50;3.20;;;;;;;8.71;74.56;100026.42;108129;1254;69051;-66
2024/02/14 11:06:16;;;;;;;9.00;4.20;;;;;;;8.79;74.36;100025.48;108107;1255;73008;-67
2024/02/14 11:09:16;;;;;;;6.50;3.80;;;;;;;8.80;74.52;100025.98;107988;1254;59501;-67
2024/02/14 11:11:44;;;;;;;8.40;3.90;;;;;;;8.89;74.01;100026.73;107749;1251;60163;-67
2024/02/14 11:14:16;;;;;;;7.50;4.20;;;;;;;8.82;74.01;100025.73;108124;1254;73110;-66
2024/02/14 11:16:45;;;;;;;7.30;3.50;;;;;;;8.78;74.22;100025.51;108078;1254;70475;-65
2024/02/14 11:19:13;;;;;;;6.00;3.30;;;;;;;8.76;73.94;100025.39;108243;1256;74828;-67
2024/02/14 11:21:45;;;;;;;6.90;3.60;;;;;;;8.74;74.05;100029.14;108167;1252;60183;-67
2024/02/14 11:24:15;;;;;;;8.20;3.80;;;;;;;8.79;73.88;100030.39;108152;1254;60394;-69
2024/02/14 11:26:51;;;;;;;6.00;3.10;;;;;;;8.76;73.96;100035.73;108149;1254;71849;-67